Terminal Aerodrome Forecast
Issued by NWS

Home | Current Version | Previous Version | Graphics & Text | Print | Product List | Glossary On
Versions: 1 2 3 4 5 6 7 8 9 10 11 12 13 14 15 16 17 18 19 20 21 22 23 24 25 26 27
000
FTUS43 KLOT 010916 AAB
TAFGYY
TAF AMD
KGYY 010916Z 0109/0206 22005KT 6SM BR SCT012 OVC150
     FM011200 29009KT 4SM BR SCT003 OVC008
     FM011600 29013G20KT P6SM VCSH OVC015
     FM012000 31019G28KT 5SM -RASN BR BKN025
     FM020200 31015G22KT P6SM SCT025 BKN050=

USA.gov is the U.S. government's official web portal to all federal, state and local government web resources and services.